Hanksville, Utah
Current Conditions -  °F | °C
As of 1:53 AM on Monday 22 Dec 2014 (Local Time) from KCNY Reporting Station
Clear Clear  
Wind Chill: 32°   Ceiling: Unl
Heat Index: 32°   Visibility: 10mi
Dew Point: 31°   Wind: 0mph
Humidity: 96%   Direction: NA
Pressure: 29.93"   Gusts: NA
Location:  38.37°N, 110.71°W
Report Text: KCNY 220853Z AUTO 00000KT 10SM CLR 00/M01 A2993 RMK AO2 SLP141 T00001006 58002
Loading
Personal Weather Stations






























Interactive Weather Map New forecast layout! Learn more

10-Day Weather Forecast

Advertisements
Track Severe Weather on mobile